sensor_id;sensor_type;location;lat;lon;timestamp;pressure;altitude;pressure_sealevel;temperature;humidity
76137;BME280;68622;53.128;17.966;2024-01-30T00:02:12;102799.75;;;0.61;72.09
76137;BME280;68622;53.128;17.966;2024-01-30T00:04:37;102803.81;;;0.65;72.01
76137;BME280;68622;53.128;17.966;2024-01-30T00:07:04;102802.63;;;0.64;71.76
76137;BME280;68622;53.128;17.966;2024-01-30T00:09:30;102800.28;;;0.60;71.84
76137;BME280;68622;53.128;17.966;2024-01-30T00:11:56;102800.99;;;0.58;71.97
76137;BME280;68622;53.128;17.966;2024-01-30T00:14:22;102801.36;;;0.58;72.13
76137;BME280;68622;53.128;17.966;2024-01-30T00:16:48;102804.44;;;0.56;72.09
76137;BME280;68622;53.128;17.966;2024-01-30T00:19:14;102804.63;;;0.55;71.94
76137;BME280;68622;53.128;17.966;2024-01-30T00:21:40;102805.30;;;0.57;71.85
76137;BME280;68622;53.128;17.966;2024-01-30T00:24:07;102804.09;;;0.57;71.84
76137;BME280;68622;53.128;17.966;2024-01-30T00:26:33;102801.71;;;0.56;71.76
76137;BME280;68622;53.128;17.966;2024-01-30T00:28:59;102798.98;;;0.56;71.93
76137;BME280;68622;53.128;17.966;2024-01-30T00:31:25;102794.71;;;0.55;71.87
76137;BME280;68622;53.128;17.966;2024-01-30T00:33:51;102799.81;;;0.57;72.04
76137;BME280;68622;53.128;17.966;2024-01-30T00:36:17;102791.56;;;0.61;72.18
76137;BME280;68622;53.128;17.966;2024-01-30T00:38:43;102790.81;;;0.66;72.04
76137;BME280;68622;53.128;17.966;2024-01-30T00:41:09;102793.32;;;0.70;71.97
76137;BME280;68622;53.128;17.966;2024-01-30T00:43:35;102794.90;;;0.66;71.38
76137;BME280;68622;53.128;17.966;2024-01-30T00:46:01;102792.64;;;0.58;71.39
76137;BME280;68622;53.128;17.966;2024-01-30T00:48:27;102791.71;;;0.50;71.38
76137;BME280;68622;53.128;17.966;2024-01-30T00:50:53;102790.80;;;0.42;71.55
76137;BME280;68622;53.128;17.966;2024-01-30T00:53:19;102792.61;;;0.33;71.55
76137;BME280;68622;53.128;17.966;2024-01-30T00:55:45;102798.80;;;0.30;71.59
76137;BME280;68622;53.128;17.966;2024-01-30T00:58:11;102799.36;;;0.25;71.70
76137;BME280;68622;53.128;17.966;2024-01-30T01:00:37;102801.29;;;0.21;71.95
76137;BME280;68622;53.128;17.966;2024-01-30T01:03:03;102800.11;;;0.19;71.92
76137;BME280;68622;53.128;17.966;2024-01-30T01:05:29;102799.31;;;0.16;71.99
76137;BME280;68622;53.128;17.966;2024-01-30T01:07:55;102792.84;;;0.15;72.09
76137;BME280;68622;53.128;17.966;2024-01-30T01:10:21;102787.36;;;0.16;72.14
76137;BME280;68622;53.128;17.966;2024-01-30T01:12:48;102788.48;;;0.21;72.58
76137;BME280;68622;53.128;17.966;2024-01-30T01:15:14;102789.06;;;0.29;72.88
76137;BME280;68622;53.128;17.966;2024-01-30T01:17:40;102784.27;;;0.31;72.75
76137;BME280;68622;53.128;17.966;2024-01-30T01:20:07;102784.29;;;0.30;72.29
76137;BME280;68622;53.128;17.966;2024-01-30T01:22:34;102782.76;;;0.30;72.06
76137;BME280;68622;53.128;17.966;2024-01-30T01:25:00;102786.86;;;0.29;72.02
76137;BME280;68622;53.128;17.966;2024-01-30T01:27:27;102786.23;;;0.25;72.07
76137;BME280;68622;53.128;17.966;2024-01-30T01:29:53;102785.94;;;0.20;72.01
76137;BME280;68622;53.128;17.966;2024-01-30T01:32:19;102782.92;;;0.16;72.18
76137;BME280;68622;53.128;17.966;2024-01-30T01:34:45;102785.01;;;0.13;72.09
76137;BME280;68622;53.128;17.966;2024-01-30T01:37:11;102789.66;;;0.08;72.20
76137;BME280;68622;53.128;17.966;2024-01-30T01:39:37;102791.08;;;0.05;72.12
76137;BME280;68622;53.128;17.966;2024-01-30T01:42:04;102791.60;;;0.02;72.04
76137;BME280;68622;53.128;17.966;2024-01-30T01:44:30;102793.04;;;-0.03;72.18
76137;BME280;68622;53.128;17.966;2024-01-30T01:46:56;102793.39;;;-0.06;71.97
76137;BME280;68622;53.128;17.966;2024-01-30T01:49:24;102788.30;;;-0.08;72.73
76137;BME280;68622;53.128;17.966;2024-01-30T01:51:51;102785.62;;;-0.12;73.68
76137;BME280;68622;53.128;17.966;2024-01-30T01:54:19;102783.21;;;-0.09;73.79
76137;BME280;68622;53.128;17.966;2024-01-30T01:56:46;102782.14;;;-0.06;73.69
76137;BME280;68622;53.128;17.966;2024-01-30T01:59:12;102787.40;;;-0.04;73.30
76137;BME280;68622;53.128;17.966;2024-01-30T02:01:38;102788.09;;;-0.03;73.12
76137;BME280;68622;53.128;17.966;2024-01-30T02:04:07;102787.58;;;-0.04;73.10
76137;BME280;68622;53.128;17.966;2024-01-30T02:06:34;102783.48;;;-0.03;72.97
76137;BME280;68622;53.128;17.966;2024-01-30T02:09:00;102781.91;;;-0.00;73.03
76137;BME280;68622;53.128;17.966;2024-01-30T02:11:27;102780.67;;;0.02;73.10
76137;BME280;68622;53.128;17.966;2024-01-30T02:13:54;102775.38;;;0.04;72.93
76137;BME280;68622;53.128;17.966;2024-01-30T02:16:19;102774.16;;;0.07;72.67
76137;BME280;68622;53.128;17.966;2024-01-30T02:18:45;102774.95;;;0.11;72.68
76137;BME280;68622;53.128;17.966;2024-01-30T02:21:15;102777.11;;;0.17;72.61
76137;BME280;68622;53.128;17.966;2024-01-30T02:23:43;102778.61;;;0.19;72.68
76137;BME280;68622;53.128;17.966;2024-01-30T02:26:10;102782.35;;;0.20;72.39
76137;BME280;68622;53.128;17.966;2024-01-30T02:28:38;102782.09;;;0.15;72.20
76137;BME280;68622;53.128;17.966;2024-01-30T02:31:04;102778.38;;;0.10;72.13
76137;BME280;68622;53.128;17.966;2024-01-30T02:33:31;102775.02;;;0.07;72.28
76137;BME280;68622;53.128;17.966;2024-01-30T02:35:57;102774.33;;;0.08;72.37
76137;BME280;68622;53.128;17.966;2024-01-30T02:38:22;102772.92;;;0.09;72.15
76137;BME280;68622;53.128;17.966;2024-01-30T02:40:52;102773.92;;;0.12;72.38
76137;BME280;68622;53.128;17.966;2024-01-30T02:43:18;102772.38;;;0.13;72.28
76137;BME280;68622;53.128;17.966;2024-01-30T02:45:45;102771.31;;;0.17;72.39
76137;BME280;68622;53.128;17.966;2024-01-30T02:48:10;102771.60;;;0.20;72.45
76137;BME280;68622;53.128;17.966;2024-01-30T02:50:36;102768.68;;;0.22;72.31
76137;BME280;68622;53.128;17.966;2024-01-30T02:53:02;102768.33;;;0.24;72.23
76137;BME280;68622;53.128;17.966;2024-01-30T02:55:28;102760.48;;;0.24;72.14
76137;BME280;68622;53.128;17.966;2024-01-30T02:57:54;102757.38;;;0.25;72.01
76137;BME280;68622;53.128;17.966;2024-01-30T03:00:20;102756.33;;;0.26;71.92
76137;BME280;68622;53.128;17.966;2024-01-30T03:02:46;102756.18;;;0.25;71.94
76137;BME280;68622;53.128;17.966;2024-01-30T03:05:12;102754.69;;;0.23;71.78
76137;BME280;68622;53.128;17.966;2024-01-30T03:07:38;102758.30;;;0.20;71.81
76137;BME280;68622;53.128;17.966;2024-01-30T03:10:05;102757.99;;;0.17;71.90
76137;BME280;68622;53.128;17.966;2024-01-30T03:12:32;102760.41;;;0.15;71.85
76137;BME280;68622;53.128;17.966;2024-01-30T03:14:58;102762.31;;;0.13;71.75
76137;BME280;68622;53.128;17.966;2024-01-30T03:17:24;102769.12;;;0.15;71.78
76137;BME280;68622;53.128;17.966;2024-01-30T03:19:50;102766.70;;;0.17;71.72
76137;BME280;68622;53.128;17.966;2024-01-30T03:22:16;102769.29;;;0.15;71.75
76137;BME280;68622;53.128;17.966;2024-01-30T03:24:42;102767.08;;;0.14;71.67
76137;BME280;68622;53.128;17.966;2024-01-30T03:27:09;102771.52;;;0.14;71.90
76137;BME280;68622;53.128;17.966;2024-01-30T03:29:35;102774.77;;;0.12;71.92
76137;BME280;68622;53.128;17.966;2024-01-30T03:32:01;102768.13;;;0.11;72.07
76137;BME280;68622;53.128;17.966;2024-01-30T03:34:27;102764.20;;;0.11;71.80
76137;BME280;68622;53.128;17.966;2024-01-30T03:36:53;102764.70;;;0.14;72.08
76137;BME280;68622;53.128;17.966;2024-01-30T03:39:19;102761.21;;;0.18;71.85
76137;BME280;68622;53.128;17.966;2024-01-30T03:41:45;102764.05;;;0.24;72.00
76137;BME280;68622;53.128;17.966;2024-01-30T03:44:11;102763.83;;;0.28;72.28
76137;BME280;68622;53.128;17.966;2024-01-30T03:46:37;102760.73;;;0.31;72.31
76137;BME280;68622;53.128;17.966;2024-01-30T03:49:03;102758.84;;;0.32;71.97
76137;BME280;68622;53.128;17.966;2024-01-30T03:51:29;102757.14;;;0.31;72.08
76137;BME280;68622;53.128;17.966;2024-01-30T03:53:55;102759.20;;;0.31;72.02
76137;BME280;68622;53.128;17.966;2024-01-30T03:56:21;102761.61;;;0.27;71.76
76137;BME280;68622;53.128;17.966;2024-01-30T03:58:47;102759.95;;;0.25;71.83
76137;BME280;68622;53.128;17.966;2024-01-30T04:01:14;102760.81;;;0.24;71.79
76137;BME280;68622;53.128;17.966;2024-01-30T04:03:41;102756.55;;;0.23;71.84
76137;BME280;68622;53.128;17.966;2024-01-30T04:06:08;102755.56;;;0.20;71.84
76137;BME280;68622;53.128;17.966;2024-01-30T04:08:34;102754.89;;;0.18;71.89
76137;BME280;68622;53.128;17.966;2024-01-30T04:11:09;102755.26;;;0.17;72.00
76137;BME280;68622;53.128;17.966;2024-01-30T04:13:35;102756.66;;;0.15;72.05
76137;BME280;68622;53.128;17.966;2024-01-30T04:16:02;102760.77;;;0.14;72.02
76137;BME280;68622;53.128;17.966;2024-01-30T04:18:28;102755.29;;;0.16;72.01
76137;BME280;68622;53.128;17.966;2024-01-30T04:20:55;102753.93;;;0.15;71.89
76137;BME280;68622;53.128;17.966;2024-01-30T04:23:21;102754.25;;;0.16;71.95
76137;BME280;68622;53.128;17.966;2024-01-30T04:25:47;102752.83;;;0.20;72.22
76137;BME280;68622;53.128;17.966;2024-01-30T04:28:12;102754.17;;;0.23;72.15
76137;BME280;68622;53.128;17.966;2024-01-30T04:30:39;102751.44;;;0.24;72.04
76137;BME280;68622;53.128;17.966;2024-01-30T04:33:05;102753.31;;;0.24;71.84
76137;BME280;68622;53.128;17.966;2024-01-30T04:35:31;102752.28;;;0.24;72.12
76137;BME280;68622;53.128;17.966;2024-01-30T04:37:57;102753.44;;;0.26;72.09
76137;BME280;68622;53.128;17.966;2024-01-30T04:40:23;102754.64;;;0.25;72.14
76137;BME280;68622;53.128;17.966;2024-01-30T04:42:49;102759.13;;;0.23;72.09
76137;BME280;68622;53.128;17.966;2024-01-30T04:45:15;102759.48;;;0.21;72.23
76137;BME280;68622;53.128;17.966;2024-01-30T04:47:41;102758.13;;;0.18;72.44
76137;BME280;68622;53.128;17.966;2024-01-30T04:50:07;102765.84;;;0.17;72.47
76137;BME280;68622;53.128;17.966;2024-01-30T04:52:35;102767.07;;;0.15;72.50
76137;BME280;68622;53.128;17.966;2024-01-30T04:55:01;102764.02;;;0.13;72.50
76137;BME280;68622;53.128;17.966;2024-01-30T04:57:27;102769.48;;;0.14;72.41
76137;BME280;68622;53.128;17.966;2024-01-30T04:59:53;102769.83;;;0.12;72.43
76137;BME280;68622;53.128;17.966;2024-01-30T05:02:19;102769.50;;;0.10;72.37
76137;BME280;68622;53.128;17.966;2024-01-30T05:04:45;102772.21;;;0.12;72.39
76137;BME280;68622;53.128;17.966;2024-01-30T05:07:11;102769.48;;;0.11;72.34
76137;BME280;68622;53.128;17.966;2024-01-30T05:09:37;102763.20;;;0.09;72.38
76137;BME280;68622;53.128;17.966;2024-01-30T05:12:03;102762.19;;;0.08;72.64
76137;BME280;68622;53.128;17.966;2024-01-30T05:14:29;102756.69;;;0.11;72.45
76137;BME280;68622;53.128;17.966;2024-01-30T05:16:55;102751.41;;;0.11;72.61
76137;BME280;68622;53.128;17.966;2024-01-30T05:19:21;102750.36;;;0.14;72.54
76137;BME280;68622;53.128;17.966;2024-01-30T05:21:49;102748.25;;;0.18;72.54
76137;BME280;68622;53.128;17.966;2024-01-30T05:24:15;102748.73;;;0.20;72.56
76137;BME280;68622;53.128;17.966;2024-01-30T05:26:41;102751.95;;;0.22;72.62
76137;BME280;68622;53.128;17.966;2024-01-30T05:29:07;102752.98;;;0.24;72.59
76137;BME280;68622;53.128;17.966;2024-01-30T05:31:34;102750.20;;;0.26;72.53
76137;BME280;68622;53.128;17.966;2024-01-30T05:34:00;102750.14;;;0.31;72.43
76137;BME280;68622;53.128;17.966;2024-01-30T05:36:26;102747.16;;;0.36;72.51
76137;BME280;68622;53.128;17.966;2024-01-30T05:38:52;102747.95;;;0.42;72.57
76137;BME280;68622;53.128;17.966;2024-01-30T05:41:18;102746.34;;;0.47;72.70
76137;BME280;68622;53.128;17.966;2024-01-30T05:43:44;102747.81;;;0.51;72.54
76137;BME280;68622;53.128;17.966;2024-01-30T05:46:10;102748.52;;;0.50;72.36
76137;BME280;68622;53.128;17.966;2024-01-30T05:48:36;102755.15;;;0.51;72.44
76137;BME280;68622;53.128;17.966;2024-01-30T05:51:02;102756.88;;;0.50;72.51
76137;BME280;68622;53.128;17.966;2024-01-30T05:53:29;102756.73;;;0.50;72.52
76137;BME280;68622;53.128;17.966;2024-01-30T05:55:55;102759.98;;;0.49;72.45
76137;BME280;68622;53.128;17.966;2024-01-30T05:58:21;102762.89;;;0.49;72.55
76137;BME280;68622;53.128;17.966;2024-01-30T06:00:47;102765.13;;;0.46;72.81
76137;BME280;68622;53.128;17.966;2024-01-30T06:03:13;102768.04;;;0.45;72.95
76137;BME280;68622;53.128;17.966;2024-01-30T06:05:39;102769.93;;;0.44;72.72
76137;BME280;68622;53.128;17.966;2024-01-30T06:08:05;102766.04;;;0.42;72.93
76137;BME280;68622;53.128;17.966;2024-01-30T06:10:31;102764.71;;;0.40;72.91
76137;BME280;68622;53.128;17.966;2024-01-30T06:12:57;102764.21;;;0.38;72.79
76137;BME280;68622;53.128;17.966;2024-01-30T06:15:23;102765.23;;;0.38;72.68
76137;BME280;68622;53.128;17.966;2024-01-30T06:17:49;102767.95;;;0.39;72.69
76137;BME280;68622;53.128;17.966;2024-01-30T06:20:15;102769.10;;;0.43;72.85
76137;BME280;68622;53.128;17.966;2024-01-30T06:22:41;102772.12;;;0.47;72.78
76137;BME280;68622;53.128;17.966;2024-01-30T06:25:07;102771.73;;;0.50;72.81
76137;BME280;68622;53.128;17.966;2024-01-30T06:27:33;102773.39;;;0.53;72.63
76137;BME280;68622;53.128;17.966;2024-01-30T06:29:59;102772.34;;;0.56;72.56
76137;BME280;68622;53.128;17.966;2024-01-30T06:32:25;102771.06;;;0.61;72.48
76137;BME280;68622;53.128;17.966;2024-01-30T06:34:51;102775.84;;;0.62;72.40
76137;BME280;68622;53.128;17.966;2024-01-30T06:37:16;102778.23;;;0.62;72.29
76137;BME280;68622;53.128;17.966;2024-01-30T06:39:42;102780.45;;;0.62;72.08
76137;BME280;68622;53.128;17.966;2024-01-30T06:42:08;102778.41;;;0.61;72.11
76137;BME280;68622;53.128;17.966;2024-01-30T06:44:35;102774.14;;;0.62;71.99
76137;BME280;68622;53.128;17.966;2024-01-30T06:47:01;102769.67;;;0.63;72.18
76137;BME280;68622;53.128;17.966;2024-01-30T06:49:27;102770.67;;;0.66;72.19
76137;BME280;68622;53.128;17.966;2024-01-30T06:51:53;102765.30;;;0.70;72.22
76137;BME280;68622;53.128;17.966;2024-01-30T06:54:20;102766.59;;;0.76;72.29
76137;BME280;68622;53.128;17.966;2024-01-30T06:56:46;102769.89;;;0.84;72.32
76137;BME280;68622;53.128;17.966;2024-01-30T06:59:12;102771.29;;;0.93;72.50
76137;BME280;68622;53.128;17.966;2024-01-30T07:01:37;102770.46;;;1.03;72.22
76137;BME280;68622;53.128;17.966;2024-01-30T07:04:03;102772.77;;;1.07;72.20
76137;BME280;68622;53.128;17.966;2024-01-30T07:06:29;102773.76;;;1.10;71.98
76137;BME280;68622;53.128;17.966;2024-01-30T07:08:55;102771.92;;;1.07;71.84
76137;BME280;68622;53.128;17.966;2024-01-30T07:11:22;102777.56;;;1.08;71.84
76137;BME280;68622;53.128;17.966;2024-01-30T07:13:52;102779.93;;;1.09;72.01
76137;BME280;68622;53.128;17.966;2024-01-30T07:16:18;102776.98;;;1.11;71.79
76137;BME280;68622;53.128;17.966;2024-01-30T07:18:44;102776.79;;;1.14;71.82
76137;BME280;68622;53.128;17.966;2024-01-30T07:21:11;102770.61;;;1.15;71.81
76137;BME280;68622;53.128;17.966;2024-01-30T07:23:37;102773.46;;;1.18;72.04
76137;BME280;68622;53.128;17.966;2024-01-30T07:26:05;102775.13;;;1.21;72.25
76137;BME280;68622;53.128;17.966;2024-01-30T07:28:32;102774.73;;;1.24;72.23
76137;BME280;68622;53.128;17.966;2024-01-30T07:30:59;102774.66;;;1.28;71.97
76137;BME280;68622;53.128;17.966;2024-01-30T07:33:25;102772.52;;;1.34;72.01
76137;BME280;68622;53.128;17.966;2024-01-30T07:35:52;102776.36;;;1.39;71.95
76137;BME280;68622;53.128;17.966;2024-01-30T07:38:18;102778.15;;;1.44;72.11
76137;BME280;68622;53.128;17.966;2024-01-30T07:40:45;102780.63;;;1.50;72.08
76137;BME280;68622;53.128;17.966;2024-01-30T07:43:11;102776.92;;;1.56;72.08
76137;BME280;68622;53.128;17.966;2024-01-30T07:45:37;102774.07;;;1.63;71.96
76137;BME280;68622;53.128;17.966;2024-01-30T07:48:06;102776.79;;;1.72;72.05
76137;BME280;68622;53.128;17.966;2024-01-30T07:50:32;102775.56;;;1.84;72.09
76137;BME280;68622;53.128;17.966;2024-01-30T07:53:00;102775.50;;;1.96;72.03
76137;BME280;68622;53.128;17.966;2024-01-30T07:55:27;102774.95;;;2.07;71.86
76137;BME280;68622;53.128;17.966;2024-01-30T07:57:57;102778.89;;;2.15;71.24
76137;BME280;68622;53.128;17.966;2024-01-30T08:00:24;102778.27;;;2.20;71.21
76137;BME280;68622;53.128;17.966;2024-01-30T08:02:50;102777.82;;;2.25;71.23
76137;BME280;68622;53.128;17.966;2024-01-30T08:05:16;102777.50;;;2.34;70.97
76137;BME280;68622;53.128;17.966;2024-01-30T08:07:42;102781.57;;;2.43;70.96
76137;BME280;68622;53.128;17.966;2024-01-30T08:10:08;102780.27;;;2.56;71.01
76137;BME280;68622;53.128;17.966;2024-01-30T08:12:34;102780.96;;;2.71;71.11
76137;BME280;68622;53.128;17.966;2024-01-30T08:15:00;102781.27;;;2.87;70.88
76137;BME280;68622;53.128;17.966;2024-01-30T08:17:26;102780.91;;;3.02;70.34
76137;BME280;68622;53.128;17.966;2024-01-30T08:19:52;102784.33;;;3.17;69.84
76137;BME280;68622;53.128;17.966;2024-01-30T08:22:18;102778.33;;;3.31;69.56
76137;BME280;68622;53.128;17.966;2024-01-30T08:24:44;102778.02;;;3.43;69.44
76137;BME280;68622;53.128;17.966;2024-01-30T08:27:10;102775.16;;;3.55;68.84
76137;BME280;68622;53.128;17.966;2024-01-30T08:29:36;102776.86;;;3.62;68.03
76137;BME280;68622;53.128;17.966;2024-01-30T08:32:02;102775.03;;;3.79;67.83
76137;BME280;68622;53.128;17.966;2024-01-30T08:34:28;102776.58;;;3.85;66.73
76137;BME280;68622;53.128;17.966;2024-01-30T08:36:54;102772.00;;;4.02;66.92
76137;BME280;68622;53.128;17.966;2024-01-30T08:39:19;102776.77;;;4.15;67.34
76137;BME280;68622;53.128;17.966;2024-01-30T08:41:45;102772.30;;;4.27;67.40
76137;BME280;68622;53.128;17.966;2024-01-30T08:44:11;102775.42;;;4.38;66.27
76137;BME280;68622;53.128;17.966;2024-01-30T08:46:37;102772.69;;;4.43;65.27
76137;BME280;68622;53.128;17.966;2024-01-30T08:49:03;102769.42;;;4.55;65.18
76137;BME280;68622;53.128;17.966;2024-01-30T08:51:30;102764.39;;;4.68;65.27
76137;BME280;68622;53.128;17.966;2024-01-30T08:53:56;102761.98;;;4.62;63.87
76137;BME280;68622;53.128;17.966;2024-01-30T08:56:22;102761.70;;;4.82;64.77
76137;BME280;68622;53.128;17.966;2024-01-30T08:58:49;102759.23;;;4.89;64.44
76137;BME280;68622;53.128;17.966;2024-01-30T09:01:15;102759.50;;;4.97;63.90
76137;BME280;68622;53.128;17.966;2024-01-30T09:03:41;102755.38;;;5.08;64.62
76137;BME280;68622;53.128;17.966;2024-01-30T09:06:10;102754.73;;;5.06;63.09
76137;BME280;68622;53.128;17.966;2024-01-30T09:08:36;102754.77;;;5.26;64.38
76137;BME280;68622;53.128;17.966;2024-01-30T09:11:09;102746.19;;;5.36;64.69
76137;BME280;68622;53.128;17.966;2024-01-30T09:13:36;102750.83;;;5.41;63.61
76137;BME280;68622;53.128;17.966;2024-01-30T09:16:02;102749.26;;;5.42;61.48
76137;BME280;68622;53.128;17.966;2024-01-30T09:18:28;102746.39;;;5.50;62.26
76137;BME280;68622;53.128;17.966;2024-01-30T09:20:54;102744.92;;;5.53;61.67
76137;BME280;68622;53.128;17.966;2024-01-30T09:23:20;102741.08;;;5.64;63.37
76137;BME280;68622;53.128;17.966;2024-01-30T09:25:46;102741.65;;;5.62;61.75
76137;BME280;68622;53.128;17.966;2024-01-30T09:28:12;102743.27;;;5.66;61.11
76137;BME280;68622;53.128;17.966;2024-01-30T09:30:38;102742.38;;;5.71;61.48
76137;BME280;68622;53.128;17.966;2024-01-30T09:33:06;102744.09;;;5.71;60.33
76137;BME280;68622;53.128;17.966;2024-01-30T09:35:37;102740.00;;;5.80;60.85
76137;BME280;68622;53.128;17.966;2024-01-30T09:38:03;102737.95;;;5.79;59.88
76137;BME280;68622;53.128;17.966;2024-01-30T09:40:33;102735.98;;;5.81;60.16
76137;BME280;68622;53.128;17.966;2024-01-30T09:43:02;102733.94;;;5.86;60.46
76137;BME280;68622;53.128;17.966;2024-01-30T09:45:29;102732.48;;;5.93;60.74
76137;BME280;68622;53.128;17.966;2024-01-30T09:47:55;102728.70;;;6.03;61.49
76137;BME280;68622;53.128;17.966;2024-01-30T09:50:21;102725.75;;;6.12;62.40
76137;BME280;68622;53.128;17.966;2024-01-30T09:52:48;102720.80;;;6.20;62.73
76137;BME280;68622;53.128;17.966;2024-01-30T09:55:16;102720.40;;;6.26;61.99
76137;BME280;68622;53.128;17.966;2024-01-30T09:57:42;102714.34;;;6.36;62.65
76137;BME280;68622;53.128;17.966;2024-01-30T10:00:09;102711.06;;;6.40;62.14
76137;BME280;68622;53.128;17.966;2024-01-30T10:02:39;102708.87;;;6.48;61.56
76137;BME280;68622;53.128;17.966;2024-01-30T10:05:06;102709.27;;;6.55;61.53
76137;BME280;68622;53.128;17.966;2024-01-30T10:07:32;102709.16;;;6.58;59.48
76137;BME280;68622;53.128;17.966;2024-01-30T10:10:11;102709.41;;;6.69;61.17
76137;BME280;68622;53.128;17.966;2024-01-30T10:12:39;102705.19;;;6.75;59.73
76137;BME280;68622;53.128;17.966;2024-01-30T10:15:07;102699.92;;;6.82;60.38
76137;BME280;68622;53.128;17.966;2024-01-30T10:17:33;102695.54;;;6.79;57.64
76137;BME280;68622;53.128;17.966;2024-01-30T10:20:05;102696.51;;;6.81;57.78
76137;BME280;68622;53.128;17.966;2024-01-30T10:22:31;102693.92;;;6.90;59.20
76137;BME280;68622;53.128;17.966;2024-01-30T10:24:57;102691.86;;;6.89;58.00
76137;BME280;68622;53.128;17.966;2024-01-30T10:27:26;102687.30;;;6.91;57.91
76137;BME280;68622;53.128;17.966;2024-01-30T10:29:53;102689.57;;;6.78;56.62
76137;BME280;68622;53.128;17.966;2024-01-30T10:32:19;102689.59;;;6.86;57.16
76137;BME280;68622;53.128;17.966;2024-01-30T10:34:45;102689.20;;;6.95;57.97
76137;BME280;68622;53.128;17.966;2024-01-30T10:37:11;102691.33;;;7.02;58.28
76137;BME280;68622;53.128;17.966;2024-01-30T10:39:44;102688.17;;;7.03;57.47
76137;BME280;68622;53.128;17.966;2024-01-30T10:42:15;102687.67;;;6.99;56.15
76137;BME280;68622;53.128;17.966;2024-01-30T10:45:00;102683.92;;;7.10;58.28
76137;BME280;68622;53.128;17.966;2024-01-30T10:47:29;102686.05;;;7.13;57.52
76137;BME280;68622;53.128;17.966;2024-01-30T10:49:56;102682.35;;;6.98;56.10
76137;BME280;68622;53.128;17.966;2024-01-30T10:52:24;102681.08;;;7.08;56.17
76137;BME280;68622;53.128;17.966;2024-01-30T10:54:55;102683.97;;;7.17;56.50
76137;BME280;68622;53.128;17.966;2024-01-30T10:57:25;102682.89;;;7.21;56.60
76137;BME280;68622;53.128;17.966;2024-01-30T10:59:56;102676.59;;;7.07;55.67
76137;BME280;68622;53.128;17.966;2024-01-30T11:02:28;102677.93;;;7.33;56.21
76137;BME280;68622;53.128;17.966;2024-01-30T11:04:59;102675.34;;;7.45;57.91
76137;BME280;68622;53.128;17.966;2024-01-30T11:07:27;102672.90;;;7.41;56.20
76137;BME280;68622;53.128;17.966;2024-01-30T11:12:25;102668.41;;;7.60;57.00
76137;BME280;68622;53.128;17.966;2024-01-30T11:15:11;102668.48;;;7.63;56.79
76137;BME280;68622;53.128;17.966;2024-01-30T11:17:50;102663.75;;;7.56;54.65
76137;BME280;68622;53.128;17.966;2024-01-30T11:20:29;102662.58;;;7.48;54.66
76137;BME280;68622;53.128;17.966;2024-01-30T11:22:59;102656.34;;;7.52;54.17
76137;BME280;68622;53.128;17.966;2024-01-30T11:25:28;102653.34;;;7.57;55.23
76137;BME280;68622;53.128;17.966;2024-01-30T11:27:55;102656.66;;;7.64;56.57
76137;BME280;68622;53.128;17.966;2024-01-30T11:30:29;102654.91;;;7.61;56.18
76137;BME280;68622;53.128;17.966;2024-01-30T11:33:03;102654.05;;;7.53;54.08
76137;BME280;68622;53.128;17.966;2024-01-30T11:35:34;102655.48;;;7.56;55.00
76137;BME280;68622;53.128;17.966;2024-01-30T11:38:01;102653.73;;;7.56;55.72
76137;BME280;68622;53.128;17.966;2024-01-30T11:40:31;102654.77;;;7.56;55.80
76137;BME280;68622;53.128;17.966;2024-01-30T11:43:00;102647.55;;;7.60;56.34
76137;BME280;68622;53.128;17.966;2024-01-30T11:45:28;102648.09;;;7.40;54.24
76137;BME280;68622;53.128;17.966;2024-01-30T11:47:54;102641.64;;;7.53;55.62
76137;BME280;68622;53.128;17.966;2024-01-30T11:50:21;102637.19;;;7.48;55.10
76137;BME280;68622;53.128;17.966;2024-01-30T11:52:47;102634.85;;;7.47;54.41
76137;BME280;68622;53.128;17.966;2024-01-30T11:55:14;102626.41;;;7.46;53.99
76137;BME280;68622;53.128;17.966;2024-01-30T11:57:41;102621.55;;;7.54;54.95
76137;BME280;68622;53.128;17.966;2024-01-30T12:00:14;102624.23;;;7.52;53.81
76137;BME280;68622;53.128;17.966;2024-01-30T12:02:41;102616.70;;;7.70;55.84
76137;BME280;68622;53.128;17.966;2024-01-30T12:05:07;102615.73;;;7.72;55.23
76137;BME280;68622;53.128;17.966;2024-01-30T12:07:33;102610.45;;;7.63;53.73
76137;BME280;68622;53.128;17.966;2024-01-30T12:10:00;102606.33;;;7.74;53.55
76137;BME280;68622;53.128;17.966;2024-01-30T12:12:27;102604.02;;;7.68;53.41
76137;BME280;68622;53.128;17.966;2024-01-30T12:14:53;102601.81;;;7.93;55.05
76137;BME280;68622;53.128;17.966;2024-01-30T12:17:31;102597.64;;;8.00;55.06
76137;BME280;68622;53.128;17.966;2024-01-30T12:20:05;102593.79;;;8.02;54.52
76137;BME280;68622;53.128;17.966;2024-01-30T12:22:43;102590.66;;;8.02;55.34
76137;BME280;68622;53.128;17.966;2024-01-30T12:25:12;102584.68;;;8.19;54.83
76137;BME280;68622;53.128;17.966;2024-01-30T12:27:39;102580.85;;;8.30;55.20
76137;BME280;68622;53.128;17.966;2024-01-30T12:30:09;102579.53;;;8.29;56.11
76137;BME280;68622;53.128;17.966;2024-01-30T12:32:36;102573.95;;;8.26;55.94
76137;BME280;68622;53.128;17.966;2024-01-30T12:35:02;102573.20;;;8.31;55.99
76137;BME280;68622;53.128;17.966;2024-01-30T12:37:32;102571.44;;;8.35;55.52
76137;BME280;68622;53.128;17.966;2024-01-30T12:39:58;102569.42;;;8.41;56.07
76137;BME280;68622;53.128;17.966;2024-01-30T12:42:26;102564.19;;;8.38;53.98
76137;BME280;68622;53.128;17.966;2024-01-30T12:44:52;102566.27;;;8.46;55.05
76137;BME280;68622;53.128;17.966;2024-01-30T12:47:21;102562.95;;;8.43;53.91
76137;BME280;68622;53.128;17.966;2024-01-30T12:49:47;102562.17;;;8.52;55.41
76137;BME280;68622;53.128;17.966;2024-01-30T12:52:15;102562.54;;;8.51;53.92